Flight Track Log - Related Links

Times and Time Zones

All times are in EDT time to prevent confusion due to time zone crossing. See the THY1073 flight status page for this flight to view local times or setup timezone preferences in your user account.

Time Position Orientation Groundspeed Altitude Reporting Facility
EDT Latitude Longitude Course Direction KTS MPH feet Rate Location/Type
Wed 01:31:00 AM 41.2679 24.6398 277° West  Level Estimated
Wed 01:32:00 AM 41.2750 24.4999 274° West  Level Estimated
Wed 01:33:00 AM 41.2819 24.3599 274° West  Level Estimated
Wed 01:34:00 AM 41.2887 24.2199 274° West  Level Estimated
Wed 01:35:00 AM 41.2952 24.0798 274° West  Level Estimated
Wed 01:36:00 AM 41.3016 23.9397 274° West  Level Estimated
Wed 01:37:00 AM 41.3079 23.7996 273° West  Level Estimated
Wed 01:38:00 AM 41.3139 23.6595 273° West  Level Estimated
Wed 01:39:00 AM 41.3199 23.5194 273° West  Level Estimated
Wed 01:40:00 AM 41.3256 23.3792 273° West  Level Estimated
Wed 01:41:00 AM 41.3311 23.2390 273° West  Level Estimated
Wed 01:42:00 AM 41.3365 23.0987 273° West  Level Estimated
Wed 01:43:00 AM 41.3418 22.9585 273° West  Level Estimated
Wed 01:44:00 AM 41.3468 22.8182 273° West  Level Estimated
Wed 01:45:00 AM 41.3517 22.6779 273° West  Level Estimated
Wed 01:46:00 AM 41.3564 22.5376 273° West  Level Estimated
Wed 01:47:00 AM 41.3609 22.3973 273° West  Level Estimated
Wed 01:48:00 AM 41.3653 22.2569 272° West  Level Estimated
Wed 01:49:00 AM 41.3695 22.1166 272° West  Level Estimated
Wed 01:50:00 AM 41.3735 21.9762 272° West  Level Estimated
Wed 01:51:00 AM 41.3774 21.8358 272° West  Level Estimated
Wed 01:52:00 AM 41.3810 21.6954 272° West  Level Estimated
Wed 01:53:00 AM 41.3845 21.5549 272° West  Level Estimated
Wed 01:54:00 AM 41.3879 21.4145 272° West  Level Estimated
Wed 01:55:00 AM 41.3911 21.2740 272° West  Level Estimated
Wed 01:56:00 AM 41.3941 21.1335 272° West  Level Estimated
Wed 01:57:00 AM 41.3969 20.9930 272° West  Level Estimated
Wed 01:58:00 AM 41.3996 20.8525 271° West  Level Estimated
Wed 01:59:00 AM 41.4020 20.7120 271° West  Level Estimated
Wed 02:00:00 AM 41.4044 20.5715 271° West  Level Estimated
Wed 02:01:00 AM 41.4065 20.4310 271° West  Level Estimated
Wed 02:02:00 AM 41.4085 20.2904 271° West  Level Estimated
Wed 02:03:00 AM 41.4103 20.1499 271° West  Level Estimated
Wed 02:04:00 AM 41.4119 20.0093 271° West  Level Estimated
Wed 02:05:00 AM 41.4134 19.8687 271° West  Level Estimated
Wed 02:06:00 AM 41.4147 19.7282 271° West  Level Estimated
Wed 02:07:00 AM 41.4147 19.7206 271° West  Level Estimated
Wed 02:08:00 AM 41.4147 19.7206 21° North  Level Estimated
Wed 02:09:00 AM 41.4147 19.7206 21° North  Level Estimated
Wed 02:10:00 AM 41.4147 19.7206 21° North  Level Estimated
Wed 02:11:00 AM 41.4147 19.7206 21° North  Level Estimated
Wed 02:12:00 AM 41.4147 19.7206 21° North  Level Estimated
Wed 02:13:00 AM 41.4147 19.7206 21° North  Level Estimated
Wed 02:14:00 AM 41.4147 19.7206 21° North  Level Estimated
Wed 02:15:00 AM 41.4147 19.7206 21° North  Level Estimated
Wed 02:16:00 AM 41.4147 19.7206 21° North  Level Estimated
Wed 02:17:00 AM 41.4147 19.7206 21° North  Level Estimated
Wed 02:18:00 AM 41.4147 19.7206 21° North  Level Estimated
Wed 02:19:00 AM 41.4147 19.7206 21° North  Level Estimated
Wed 02:20:00 AM 41.4147 19.7206 21° North  Level Estimated
Wed 02:21:00 AM 41.4147 19.7206 21° North  Level Estimated
Wed 02:22:00 AM 41.4147 19.7206 21° North  Level Estimated

Login

Don't have an account? Register now (free) for customized features, flight alerts, and more!